Terminal Aerodrome Forecast
Issued by NWS

Home | Current Version | Previous Version | Text Only | Print | Product List | Glossary On
Versions: 1 2 3 4 5 6 7 8 9 10 11 12 13 14 15
000
FTUS46 KSEW 290520
TAFOLM
TAF
KOLM 290520Z 2906/3006 00000KT P6SM SCT250
     FM291000 00000KT 3SM BR SCT003 BKN250
      TEMPO 2913/2917 1/2SM FG VV002
     FM291900 03004KT P6SM SCT005 BKN250
     FM292100 36007KT P6SM BKN250
     FM300300 00000KT P6SM SCT150 BKN250=

USA.gov is the U.S. government's official web portal to all federal, state and local government web resources and services.